Time;durP1;ratioP1;P1;durP2;ratioP2;P2;SDS_P1;SDS_P2;PMS_P1;PMS_P2;Temp;Humidity;BMP_temperature;BMP_pressure;BME280_temperature;BME280_humidity;BME280_pressure;Samples;Min_cycle;Max_cycle;Signal;HPM_P1;HPM_P2
2023/07/12 00:01:37;;;;;;;9.68;5.50;;;;;;;;;;5044009;28;20055;-49
2023/07/12 00:04:02;;;;;;;9.40;5.40;;;;;;;;;;5036092;28;20021;-54
2023/07/12 00:06:39;;;;;;;12.43;6.43;;;;;;;;;;5032244;28;20033;-51
2023/07/12 00:09:10;;;;;;;11.75;5.88;;;;;;;;;;5049279;28;20021;-54
2023/07/12 00:11:35;;;;;;;9.05;5.22;;;;;;;;;;5045685;28;20067;-52
2023/07/12 00:14:01;;;;;;;14.63;5.70;;;;;;;;;;5056439;28;20029;-54
2023/07/12 00:16:33;;;;;;;10.63;5.22;;;;;;;;;;5033448;28;20050;-50
2023/07/12 00:18:59;;;;;;;8.43;5.35;;;;;;;;;;5036896;28;20060;-53
2023/07/12 00:21:27;;;;;;;18.80;5.32;;;;;;;;;;5022703;28;20048;-53
2023/07/12 00:23:54;;;;;;;12.90;5.57;;;;;;;;;;5037452;28;20045;-52
2023/07/12 00:26:31;;;;;;;12.95;5.70;;;;;;;;;;5045074;28;20044;-52
2023/07/12 00:28:58;;;;;;;15.23;5.50;;;;;;;;;;5030394;28;20113;-52
2023/07/12 00:31:24;;;;;;;14.48;5.20;;;;;;;;;;5050726;28;20075;-51
2023/07/12 00:33:49;;;;;;;14.00;5.55;;;;;;;;;;5056494;28;20386;-53
2023/07/12 00:36:27;;;;;;;10.25;6.40;;;;;;;;;;5055665;28;20183;-51
2023/07/12 00:38:54;;;;;;;11.50;6.30;;;;;;;;;;5052580;28;20037;-55
2023/07/12 00:41:53;;;;;;;15.80;5.45;;;;;;;;;;5054650;28;20136;-51
2023/07/12 00:44:22;;;;;;;14.80;6.43;;;;;;;;;;5053562;28;20379;-51
2023/07/12 00:46:51;;;;;;;9.63;5.75;;;;;;;;;;5038268;28;20048;-54
2023/07/12 00:49:16;;;;;;;11.77;5.55;;;;;;;;;;5059615;28;20060;-52
2023/07/12 00:52:00;;;;;;;15.77;5.70;;;;;;;;;;5054519;28;20041;-53
2023/07/12 00:54:50;;;;;;;8.93;5.32;;;;;;;;;;5052268;28;20033;-55
2023/07/12 00:57:16;;;;;;;11.60;5.45;;;;;;;;;;5053516;28;20742;-51
2023/07/12 00:59:42;;;;;;;10.88;6.47;;;;;;;;;;5039002;28;20036;-51
2023/07/12 01:02:08;;;;;;;17.88;6.43;;;;;;;;;;5052099;28;20045;-50
2023/07/12 01:04:42;;;;;;;14.98;6.93;;;;;;;;;;5039113;28;20506;-52
2023/07/12 01:07:08;;;;;;;35.50;6.50;;;;;;;;;;5029872;28;20065;-51
2023/07/12 01:09:33;;;;;;;15.85;6.10;;;;;;;;;;5037287;28;20028;-51
2023/07/12 01:12:00;;;;;;;12.48;5.82;;;;;;;;;;5056177;28;20113;-50
2023/07/12 01:14:26;;;;;;;10.55;5.50;;;;;;;;;;5048805;28;20025;-54
2023/07/12 01:16:56;;;;;;;17.75;5.97;;;;;;;;;;5054474;28;20056;-53
2023/07/12 01:19:22;;;;;;;12.63;5.80;;;;;;;;;;5039952;28;20025;-50
2023/07/12 01:21:53;;;;;;;13.88;5.70;;;;;;;;;;5052857;28;20061;-54
2023/07/12 01:24:19;;;;;;;9.32;5.65;;;;;;;;;;5046310;28;20037;-53
2023/07/12 01:26:48;;;;;;;7.60;5.20;;;;;;;;;;5036572;28;20037;-52
2023/07/12 01:29:14;;;;;;;12.23;5.55;;;;;;;;;;5057093;28;20033;-51
2023/07/12 01:31:41;;;;;;;13.48;5.47;;;;;;;;;;5057096;28;20033;-54
2023/07/12 01:34:07;;;;;;;9.65;5.53;;;;;;;;;;5037805;28;20386;-53
2023/07/12 01:36:33;;;;;;;12.73;5.68;;;;;;;;;;5057339;28;20041;-50
2023/07/12 01:39:00;;;;;;;9.20;5.72;;;;;;;;;;5032363;28;20045;-53
2023/07/12 01:41:27;;;;;;;12.85;5.22;;;;;;;;;;5051577;28;20069;-54
2023/07/12 01:43:53;;;;;;;8.00;5.43;;;;;;;;;;5060033;28;20048;-53
2023/07/12 01:46:19;;;;;;;13.88;5.95;;;;;;;;;;5043012;28;20125;-54
2023/07/12 01:48:44;;;;;;;11.25;5.63;;;;;;;;;;5053963;28;20075;-51
2023/07/12 01:51:11;;;;;;;12.32;5.85;;;;;;;;;;5036203;28;20037;-55
2023/07/12 01:53:36;;;;;;;15.38;6.20;;;;;;;;;;5056810;28;20090;-54
2023/07/12 01:56:04;;;;;;;16.23;5.60;;;;;;;;;;5033761;28;20049;-54
2023/07/12 01:58:29;;;;;;;11.15;5.85;;;;;;;;;;5051921;28;20044;-53
2023/07/12 02:00:56;;;;;;;10.25;5.85;;;;;;;;;;5030750;28;20029;-53
2023/07/12 02:03:22;;;;;;;17.10;6.30;;;;;;;;;;5056414;28;20035;-53
2023/07/12 02:05:48;;;;;;;11.57;6.00;;;;;;;;;;5043629;28;20029;-51
2023/07/12 02:08:14;;;;;;;9.70;5.50;;;;;;;;;;5041401;28;20040;-51
2023/07/12 02:10:49;;;;;;;11.60;5.22;;;;;;;;;;5040990;28;20522;-51
2023/07/12 02:13:16;;;;;;;13.15;5.60;;;;;;;;;;5038159;28;20020;-52
2023/07/12 02:16:19;;;;;;;12.32;5.45;;;;;;;;;;5048849;28;20123;-49
2023/07/12 02:18:45;;;;;;;21.85;5.32;;;;;;;;;;5057329;28;20402;-52
2023/07/12 02:21:29;;;;;;;11.38;5.72;;;;;;;;;;5027374;28;20114;-50
2023/07/12 02:24:13;;;;;;;13.65;5.70;;;;;;;;;;5031324;28;20030;-55
2023/07/12 02:26:41;;;;;;;9.18;5.78;;;;;;;;;;5046425;28;20063;-55
2023/07/12 02:29:07;;;;;;;7.10;5.18;;;;;;;;;;5047708;28;20025;-52
2023/07/12 02:31:32;;;;;;;14.35;6.25;;;;;;;;;;5036876;28;20039;-52
2023/07/12 02:33:57;;;;;;;10.70;5.35;;;;;;;;;;5049935;28;20033;-53
2023/07/12 02:36:23;;;;;;;14.10;5.82;;;;;;;;;;5031092;28;20041;-50
2023/07/12 02:38:49;;;;;;;16.42;5.60;;;;;;;;;;5042244;28;20036;-53
2023/07/12 02:41:18;;;;;;;16.50;6.65;;;;;;;;;;5051087;28;20038;-52
2023/07/12 02:43:46;;;;;;;6.53;5.38;;;;;;;;;;5028966;28;20029;-54
2023/07/12 02:46:12;;;;;;;10.82;5.80;;;;;;;;;;5045331;28;20044;-55
2023/07/12 02:48:37;;;;;;;9.43;5.90;;;;;;;;;;5051667;28;20052;-51
2023/07/12 02:51:03;;;;;;;10.15;5.70;;;;;;;;;;5037462;28;20445;-52
2023/07/12 02:53:28;;;;;;;11.50;6.35;;;;;;;;;;5060502;28;20028;-55
2023/07/12 02:55:54;;;;;;;13.13;5.95;;;;;;;;;;5044853;28;20406;-50
2023/07/12 02:58:19;;;;;;;14.45;6.57;;;;;;;;;;5052077;28;20025;-54
2023/07/12 03:00:46;;;;;;;21.00;7.38;;;;;;;;;;5054452;28;20058;-52
2023/07/12 03:03:12;;;;;;;12.82;7.13;;;;;;;;;;5040700;28;20022;-55
2023/07/12 03:05:38;;;;;;;12.57;6.78;;;;;;;;;;5034071;28;20040;-52
2023/07/12 03:08:03;;;;;;;14.43;6.93;;;;;;;;;;5049571;28;20078;-54
2023/07/12 03:10:29;;;;;;;13.05;7.32;;;;;;;;;;5036229;28;20041;-52
2023/07/12 03:12:55;;;;;;;12.43;6.63;;;;;;;;;;5023696;28;20438;-51
2023/07/12 03:15:20;;;;;;;12.77;6.60;;;;;;;;;;5017799;28;20061;-55
2023/07/12 03:17:46;;;;;;;10.98;7.78;;;;;;;;;;5032502;28;20031;-53
2023/07/12 03:20:12;;;;;;;12.70;7.38;;;;;;;;;;5048278;28;20032;-50
2023/07/12 03:22:37;;;;;;;13.32;7.18;;;;;;;;;;5031261;28;20052;-55
2023/07/12 03:25:03;;;;;;;17.35;7.40;;;;;;;;;;5054175;28;20029;-53
2023/07/12 03:27:28;;;;;;;13.07;7.20;;;;;;;;;;5045744;28;20048;-51
2023/07/12 03:29:54;;;;;;;10.35;7.00;;;;;;;;;;5054985;28;20489;-47
2023/07/12 03:32:19;;;;;;;17.98;8.10;;;;;;;;;;5017959;28;20065;-55
2023/07/12 03:34:44;;;;;;;12.73;7.80;;;;;;;;;;5025965;28;20029;-56
2023/07/12 03:37:12;;;;;;;14.90;7.80;;;;;;;;;;5059769;28;20103;-53
2023/07/12 03:39:38;;;;;;;16.55;7.18;;;;;;;;;;5037236;28;20078;-55
2023/07/12 03:42:04;;;;;;;12.88;6.65;;;;;;;;;;5031395;28;20029;-55
2023/07/12 03:44:30;;;;;;;14.75;7.95;;;;;;;;;;5030428;28;20036;-53
2023/07/12 03:46:55;;;;;;;13.95;7.50;;;;;;;;;;5042576;28;20037;-54
2023/07/12 03:49:20;;;;;;;11.70;7.55;;;;;;;;;;5045052;28;20026;-54
2023/07/12 03:51:46;;;;;;;12.90;7.35;;;;;;;;;;5049391;28;20076;-50
2023/07/12 03:54:12;;;;;;;18.45;7.75;;;;;;;;;;5055263;28;20033;-50
2023/07/12 03:56:37;;;;;;;20.02;8.15;;;;;;;;;;5054418;28;20041;-53
2023/07/12 03:59:03;;;;;;;13.80;8.02;;;;;;;;;;5018870;28;20021;-50
2023/07/12 04:01:28;;;;;;;15.65;8.70;;;;;;;;;;5019103;28;20128;-55
2023/07/12 04:03:54;;;;;;;14.52;7.80;;;;;;;;;;5035678;28;20499;-53
2023/07/12 04:06:19;;;;;;;13.85;8.18;;;;;;;;;;5051840;28;20127;-55
2023/07/12 04:08:45;;;;;;;11.18;8.00;;;;;;;;;;5039727;28;20075;-53
2023/07/12 04:11:25;;;;;;;11.57;8.55;;;;;;;;;;5056678;28;20049;-48
2023/07/12 04:13:50;;;;;;;11.63;8.65;;;;;;;;;;5052404;28;20558;-52
2023/07/12 04:16:16;;;;;;;15.85;8.15;;;;;;;;;;5032357;28;20073;-52
2023/07/12 04:18:41;;;;;;;13.70;8.43;;;;;;;;;;5012428;28;20026;-53
2023/07/12 04:21:07;;;;;;;20.38;9.05;;;;;;;;;;5009242;28;20045;-50
2023/07/12 04:23:33;;;;;;;15.32;7.53;;;;;;;;;;5017549;28;20030;-55
2023/07/12 04:26:00;;;;;;;13.02;8.02;;;;;;;;;;5013214;28;20489;-54
2023/07/12 04:28:26;;;;;;;12.73;7.65;;;;;;;;;;5014279;28;20369;-55
2023/07/12 04:30:51;;;;;;;12.52;7.70;;;;;;;;;;5019121;28;20060;-52
2023/07/12 04:33:16;;;;;;;18.02;7.63;;;;;;;;;;5015889;28;20041;-54
2023/07/12 04:35:42;;;;;;;18.25;7.80;;;;;;;;;;4999207;28;20076;-54
2023/07/12 04:38:07;;;;;;;19.02;7.97;;;;;;;;;;5012767;28;20436;-53
2023/07/12 04:40:33;;;;;;;15.95;7.28;;;;;;;;;;5016749;28;20440;-51
2023/07/12 04:42:58;;;;;;;15.60;7.45;;;;;;;;;;5015033;28;20083;-54
2023/07/12 04:45:23;;;;;;;22.92;7.50;;;;;;;;;;5030097;28;20080;-52
2023/07/12 04:47:49;;;;;;;14.02;7.32;;;;;;;;;;5017583;28;20522;-53
2023/07/12 04:50:14;;;;;;;21.88;7.72;;;;;;;;;;5013031;28;20084;-55
2023/07/12 04:52:40;;;;;;;16.08;8.40;;;;;;;;;;5016366;28;20022;-51
2023/07/12 04:55:21;;;;;;;15.27;7.95;;;;;;;;;;5016435;28;20108;-54
2023/07/12 04:57:46;;;;;;;13.80;8.17;;;;;;;;;;5010739;28;20026;-51
2023/07/12 05:00:13;;;;;;;15.15;8.02;;;;;;;;;;5009699;28;20030;-49
2023/07/12 05:02:39;;;;;;;17.92;8.80;;;;;;;;;;5022199;28;20033;-51
2023/07/12 05:05:05;;;;;;;19.65;7.90;;;;;;;;;;5020021;28;20030;-50
2023/07/12 05:07:31;;;;;;;14.65;7.82;;;;;;;;;;5011188;28;20022;-49
2023/07/12 05:09:57;;;;;;;14.98;8.02;;;;;;;;;;5017012;28;20032;-52
2023/07/12 05:12:22;;;;;;;21.30;8.68;;;;;;;;;;5011894;28;20029;-51
2023/07/12 05:14:48;;;;;;;13.90;8.57;;;;;;;;;;5020127;28;20165;-54
2023/07/12 05:17:13;;;;;;;26.13;8.43;;;;;;;;;;5018569;28;20054;-54
2023/07/12 05:19:39;;;;;;;14.07;7.88;;;;;;;;;;4998651;28;20045;-54
2023/07/12 05:22:04;;;;;;;23.05;8.30;;;;;;;;;;5015811;28;20044;-52
2023/07/12 05:24:29;;;;;;;27.88;8.98;;;;;;;;;;5000758;28;20036;-55
2023/07/12 05:26:56;;;;;;;16.98;8.23;;;;;;;;;;5026256;28;20069;-51
2023/07/12 05:29:22;;;;;;;13.45;7.55;;;;;;;;;;5014883;28;20052;-52
2023/07/12 05:31:47;;;;;;;21.45;8.40;;;;;;;;;;5012939;28;20030;-48
2023/07/12 05:34:13;;;;;;;18.23;7.95;;;;;;;;;;5004471;28;20033;-54
2023/07/12 05:36:38;;;;;;;15.45;7.93;;;;;;;;;;5013518;28;20695;-54
2023/07/12 05:39:04;;;;;;;19.90;8.05;;;;;;;;;;5016078;28;20025;-54
2023/07/12 05:41:29;;;;;;;12.43;8.00;;;;;;;;;;5015879;28;20058;-51
2023/07/12 05:43:54;;;;;;;19.02;7.95;;;;;;;;;;5010210;28;20093;-52
2023/07/12 05:46:20;;;;;;;17.73;8.68;;;;;;;;;;5012556;28;20117;-50
2023/07/12 05:48:46;;;;;;;18.35;8.30;;;;;;;;;;5012700;28;20036;-53
2023/07/12 05:51:11;;;;;;;23.98;8.45;;;;;;;;;;5013511;28;20136;-52
2023/07/12 05:53:37;;;;;;;18.15;7.80;;;;;;;;;;4997117;28;20391;-53
2023/07/12 05:56:04;;;;;;;20.38;8.38;;;;;;;;;;5011679;28;20038;-55
2023/07/12 05:58:30;;;;;;;20.50;8.65;;;;;;;;;;5008187;28;20049;-55
2023/07/12 06:01:00;;;;;;;16.15;7.53;;;;;;;;;;5011557;28;20034;-53
2023/07/12 06:03:27;;;;;;;28.15;7.78;;;;;;;;;;5014199;28;20387;-55
2023/07/12 06:05:52;;;;;;;21.65;8.45;;;;;;;;;;5008735;28;20040;-53
2023/07/12 06:08:18;;;;;;;18.73;8.18;;;;;;;;;;5008642;28;20026;-52
2023/07/12 06:10:44;;;;;;;19.80;8.38;;;;;;;;;;5009160;28;20034;-50
2023/07/12 06:13:10;;;;;;;17.35;8.18;;;;;;;;;;5011390;28;20491;-52
2023/07/12 06:15:36;;;;;;;23.85;9.48;;;;;;;;;;5018342;28;20088;-54
2023/07/12 06:18:01;;;;;;;18.30;9.00;;;;;;;;;;5018947;28;20033;-53
2023/07/12 06:20:27;;;;;;;29.08;9.38;;;;;;;;;;5015243;28;20437;-52
2023/07/12 06:22:52;;;;;;;27.25;9.02;;;;;;;;;;5045171;28;20025;-53
2023/07/12 06:25:19;;;;;;;20.90;9.00;;;;;;;;;;5030053;28;20037;-50
2023/07/12 06:27:45;;;;;;;15.15;9.13;;;;;;;;;;5019004;28;20059;-54
2023/07/12 06:30:11;;;;;;;23.05;9.15;;;;;;;;;;5028665;28;20033;-51
2023/07/12 06:32:37;;;;;;;23.85;8.85;;;;;;;;;;5019003;28;20056;-55
2023/07/12 06:35:03;;;;;;;15.85;7.85;;;;;;;;;;5036439;28;20021;-49
2023/07/12 06:37:29;;;;;;;14.70;7.35;;;;;;;;;;5034139;28;20374;-54
2023/07/12 06:39:54;;;;;;;21.10;7.80;;;;;;;;;;5046002;28;20465;-50
2023/07/12 06:42:20;;;;;;;23.00;7.60;;;;;;;;;;5050759;28;20040;-52
2023/07/12 06:44:45;;;;;;;17.95;8.18;;;;;;;;;;5053592;28;20028;-53
2023/07/12 06:47:11;;;;;;;11.77;7.28;;;;;;;;;;5049165;28;21009;-50
2023/07/12 06:49:36;;;;;;;22.63;8.48;;;;;;;;;;5044496;28;20092;-52
2023/07/12 06:52:02;;;;;;;19.40;7.80;;;;;;;;;;5049271;28;20034;-52
2023/07/12 06:54:28;;;;;;;24.17;8.30;;;;;;;;;;5035212;28;20029;-52
2023/07/12 06:56:54;;;;;;;27.48;8.35;;;;;;;;;;5047361;28;20041;-50
2023/07/12 06:59:21;;;;;;;29.05;8.48;;;;;;;;;;5049394;28;20041;-52
2023/07/12 07:01:47;;;;;;;20.00;7.40;;;;;;;;;;5027536;28;20052;-49
2023/07/12 07:04:13;;;;;;;25.33;7.50;;;;;;;;;;5019883;28;20051;-50
2023/07/12 07:06:39;;;;;;;25.55;8.48;;;;;;;;;;5050085;28;20387;-51
2023/07/12 07:09:05;;;;;;;18.70;7.03;;;;;;;;;;5020533;28;20534;-51
2023/07/12 07:11:30;;;;;;;15.02;7.03;;;;;;;;;;5040796;28;20051;-54
2023/07/12 07:13:56;;;;;;;13.43;7.35;;;;;;;;;;5052328;28;20021;-52
2023/07/12 07:16:23;;;;;;;24.80;7.90;;;;;;;;;;5019851;28;20537;-50
2023/07/12 07:18:49;;;;;;;18.10;7.55;;;;;;;;;;5022054;28;20028;-53
2023/07/12 07:21:14;;;;;;;18.98;7.82;;;;;;;;;;5050478;28;20414;-52
2023/07/12 07:23:40;;;;;;;12.85;7.07;;;;;;;;;;5038401;28;20036;-52
2023/07/12 07:26:09;;;;;;;13.23;7.47;;;;;;;;;;5017420;28;20388;-52
2023/07/12 07:28:35;;;;;;;12.50;6.95;;;;;;;;;;5050401;28;20490;-55
2023/07/12 07:31:00;;;;;;;24.48;6.97;;;;;;;;;;5030997;28;20029;-52
2023/07/12 07:33:27;;;;;;;14.07;6.70;;;;;;;;;;5035568;28;20103;-55
2023/07/12 07:35:53;;;;;;;17.02;7.47;;;;;;;;;;5049159;28;20187;-56
2023/07/12 07:38:18;;;;;;;19.67;7.07;;;;;;;;;;5036671;28;20112;-49
2023/07/12 07:40:44;;;;;;;17.52;7.55;;;;;;;;;;5026226;28;20061;-53
2023/07/12 07:43:11;;;;;;;23.50;7.38;;;;;;;;;;5039182;28;20032;-55
2023/07/12 07:45:36;;;;;;;20.08;7.95;;;;;;;;;;5049227;28;20033;-51
2023/07/12 07:48:02;;;;;;;17.25;7.43;;;;;;;;;;5040254;28;20112;-52
2023/07/12 07:50:28;;;;;;;11.77;7.00;;;;;;;;;;5039450;28;20037;-51
2023/07/12 07:52:53;;;;;;;21.33;6.88;;;;;;;;;;5030804;28;20022;-56
2023/07/12 07:55:20;;;;;;;15.82;6.72;;;;;;;;;;5053176;28;20037;-53
2023/07/12 07:57:45;;;;;;;18.02;6.95;;;;;;;;;;5042694;28;20025;-55
2023/07/12 08:00:14;;;;;;;19.27;7.13;;;;;;;;;;5020159;28;20021;-56
2023/07/12 08:02:43;;;;;;;22.98;7.22;;;;;;;;;;5056768;28;20674;-56
2023/07/12 08:05:11;;;;;;;27.83;6.63;;;;;;;;;;5042563;28;20486;-53
2023/07/12 08:07:40;;;;;;;18.90;6.75;;;;;;;;;;5049383;28;20020;-54
2023/07/12 08:10:09;;;;;;;19.58;7.25;;;;;;;;;;5057050;28;20033;-53
2023/07/12 08:12:34;;;;;;;24.85;7.13;;;;;;;;;;5040110;28;20036;-56
2023/07/12 08:14:59;;;;;;;19.35;6.55;;;;;;;;;;5055607;28;20474;-53
2023/07/12 08:17:25;;;;;;;21.90;7.07;;;;;;;;;;5044164;28;20045;-51
2023/07/12 08:19:52;;;;;;;18.77;7.47;;;;;;;;;;5066888;28;20025;-52
2023/07/12 08:22:21;;;;;;;24.77;7.55;;;;;;;;;;5029457;28;20033;-56
2023/07/12 08:24:47;;;;;;;21.08;6.88;;;;;;;;;;5025354;28;20085;-51
2023/07/12 08:27:13;;;;;;;16.73;6.80;;;;;;;;;;5024451;28;20049;-50
2023/07/12 08:29:39;;;;;;;22.42;6.97;;;;;;;;;;5042874;28;20041;-52
2023/07/12 08:32:06;;;;;;;18.33;6.82;;;;;;;;;;5048846;28;20056;-57
2023/07/12 08:34:31;;;;;;;23.08;6.63;;;;;;;;;;5056481;28;20051;-49
2023/07/12 08:36:57;;;;;;;20.13;6.57;;;;;;;;;;5051973;28;20044;-52
2023/07/12 08:39:23;;;;;;;16.20;6.82;;;;;;;;;;5050642;28;20091;-53
2023/07/12 08:41:51;;;;;;;22.70;7.22;;;;;;;;;;5057490;28;20453;-51
2023/07/12 08:44:17;;;;;;;29.55;7.80;;;;;;;;;;5038139;28;20056;-54
2023/07/12 08:46:59;;;;;;;27.63;6.90;;;;;;;;;;5054363;28;20112;-50
2023/07/12 08:49:26;;;;;;;36.40;7.65;;;;;;;;;;5050767;28;20033;-54
2023/07/12 08:52:04;;;;;;;24.42;7.03;;;;;;;;;;5060564;28;20044;-55
2023/07/12 08:54:34;;;;;;;27.92;7.80;;;;;;;;;;5056779;28;20119;-54
2023/07/12 08:57:22;;;;;;;27.30;7.82;;;;;;;;;;5056484;28;20037;-55
2023/07/12 09:00:22;;;;;;;21.63;7.10;;;;;;;;;;5054676;28;20029;-55
2023/07/12 09:02:48;;;;;;;24.10;7.20;;;;;;;;;;5040308;28;20041;-53
2023/07/12 09:05:19;;;;;;;27.48;7.28;;;;;;;;;;5054634;28;20558;-54
2023/07/12 09:08:17;;;;;;;19.25;7.18;;;;;;;;;;5045556;28;20017;-54
2023/07/12 09:11:14;;;;;;;26.13;7.43;;;;;;;;;;5038070;28;20674;-57
2023/07/12 09:13:40;;;;;;;22.58;7.38;;;;;;;;;;5055975;28;20037;-55
2023/07/12 09:16:25;;;;;;;33.40;7.30;;;;;;;;;;5034908;28;20049;-51
2023/07/12 09:18:54;;;;;;;29.45;7.25;;;;;;;;;;5028396;28;20048;-55
2023/07/12 09:21:23;;;;;;;31.42;7.85;;;;;;;;;;5055308;28;20037;-54
2023/07/12 09:23:52;;;;;;;35.60;8.43;;;;;;;;;;5053265;28;20036;-54
2023/07/12 09:26:26;;;;;;;30.85;7.57;;;;;;;;;;5050812;28;20567;-54
2023/07/12 09:29:05;;;;;;;35.35;7.07;;;;;;;;;;5056488;28;20114;-53
2023/07/12 09:31:34;;;;;;;27.83;7.25;;;;;;;;;;5023368;28;20399;-55
2023/07/12 09:34:04;;;;;;;32.83;7.85;;;;;;;;;;5042490;28;20769;-54
2023/07/12 09:36:35;;;;;;;36.23;7.23;;;;;;;;;;5053193;28;20047;-56
2023/07/12 09:39:04;;;;;;;39.45;8.13;;;;;;;;;;5054142;28;20494;-53
2023/07/12 09:41:30;;;;;;;31.00;7.70;;;;;;;;;;5040039;28;20037;-56
2023/07/12 09:43:57;;;;;;;22.67;7.13;;;;;;;;;;5037483;28;20028;-51
2023/07/12 09:46:44;;;;;;;25.15;6.97;;;;;;;;;;5052194;28;20614;-52
2023/07/12 09:49:16;;;;;;;21.85;7.57;;;;;;;;;;5041196;28;20437;-53
2023/07/12 09:51:50;;;;;;;;;;;;;;;;;;5035236;28;20048;-55
2023/07/12 09:54:30;;;;;;;33.13;7.40;;;;;;;;;;5047736;28;19935;-55
2023/07/12 09:57:02;;;;;;;20.13;6.80;;;;;;;;;;5049462;28;20403;-55
2023/07/12 10:00:00;;;;;;;;;;;;;;;;;;5051714;28;20025;-54
2023/07/12 10:02:38;;;;;;;23.42;7.43;;;;;;;;;;5017734;28;19923;-54
2023/07/12 10:05:12;;;;;;;28.05;6.78;;;;;;;;;;5063134;28;20047;-50
2023/07/12 10:07:54;;;;;;;24.88;7.25;;;;;;;;;;5055149;28;20055;-55
2023/07/12 10:10:32;;;;;;;26.98;8.10;;;;;;;;;;5039073;28;20040;-56
2023/07/12 10:13:31;;;;;;;30.75;7.95;;;;;;;;;;5047460;28;20048;-52
2023/07/12 10:15:59;;;;;;;25.17;7.07;;;;;;;;;;5050186;28;20124;-54
2023/07/12 10:18:28;;;;;;;26.52;7.25;;;;;;;;;;5050278;28;20051;-54
2023/07/12 10:20:55;;;;;;;31.98;8.23;;;;;;;;;;5036856;28;20044;-51
2023/07/12 10:23:24;;;;;;;28.98;7.38;;;;;;;;;;5041984;28;20036;-55
2023/07/12 10:25:55;;;;;;;29.70;7.45;;;;;;;;;;5026868;28;20506;-56
2023/07/12 10:28:45;;;;;;;30.95;7.35;;;;;;;;;;5043090;28;20071;-55
2023/07/12 10:31:27;;;;;;;27.08;6.93;;;;;;;;;;5036800;28;20053;-55
2023/07/12 10:33:59;;;;;;;36.75;7.95;;;;;;;;;;5046388;28;20040;-55
2023/07/12 10:36:26;;;;;;;35.10;8.30;;;;;;;;;;5051602;28;20125;-54
2023/07/12 10:38:52;;;;;;;35.33;8.00;;;;;;;;;;5051215;28;20028;-53
2023/07/12 10:41:28;;;;;;;32.50;8.45;;;;;;;;;;5018802;28;20041;-53
2023/07/12 10:44:20;;;;;;;26.35;6.63;;;;;;;;;;5042569;28;20021;-51
2023/07/12 10:46:51;;;;;;;32.38;8.00;;;;;;;;;;5054376;28;20076;-50
2023/07/12 10:49:23;;;;;;;28.25;6.93;;;;;;;;;;5033041;28;20029;-50
2023/07/12 10:52:10;;;;;;;29.42;7.43;;;;;;;;;;5021459;28;20059;-56
2023/07/12 10:54:35;;;;;;;38.22;7.97;;;;;;;;;;5037195;28;20029;-54
2023/07/12 10:57:13;;;;;;;37.88;8.50;;;;;;;;;;5051683;28;20033;-53
2023/07/12 10:59:44;;;;;;;34.75;8.05;;;;;;;;;;5054444;28;20064;-55
2023/07/12 11:02:25;;;;;;;31.70;7.93;;;;;;;;;;5035834;28;20056;-56
2023/07/12 11:04:51;;;;;;;34.13;7.77;;;;;;;;;;5054199;28;20478;-56
2023/07/12 11:07:16;;;;;;;35.65;8.20;;;;;;;;;;5028993;28;20106;-55
2023/07/12 11:09:48;;;;;;;32.22;7.43;;;;;;;;;;5050074;28;20131;-53
2023/07/12 11:12:27;;;;;;;31.35;8.10;;;;;;;;;;5045617;28;20045;-54
2023/07/12 11:15:09;;;;;;;28.58;7.65;;;;;;;;;;5055228;28;20028;-56
2023/07/12 11:18:09;;;;;;;31.70;7.93;;;;;;;;;;5051265;28;20044;-54
2023/07/12 11:20:56;;;;;;;25.63;7.82;;;;;;;;;;5045329;28;20518;-55
2023/07/12 11:23:48;;;;;;;33.45;7.70;;;;;;;;;;5054371;28;20029;-53
2023/07/12 11:26:29;;;;;;;44.42;8.27;;;;;;;;;;5049995;28;20037;-53
2023/07/12 11:29:25;;;;;;;30.65;7.53;;;;;;;;;;5053054;28;20056;-54
2023/07/12 11:32:13;;;;;;;27.23;8.35;;;;;;;;;;5029137;28;20122;-54
2023/07/12 11:34:40;;;;;;;35.92;8.02;;;;;;;;;;5038138;28;20549;-53
2023/07/12 11:37:16;;;;;;;43.05;8.43;;;;;;;;;;5053384;28;20047;-55
2023/07/12 11:39:46;;;;;;;35.10;7.63;;;;;;;;;;5049218;28;20013;-54
2023/07/12 11:42:26;;;;;;;48.22;8.27;;;;;;;;;;5048665;28;20542;-54
2023/07/12 11:45:03;;;;;;;32.63;7.65;;;;;;;;;;5049918;28;20115;-56
2023/07/12 11:47:30;;;;;;;43.13;8.10;;;;;;;;;;5053630;28;20445;-54
2023/07/12 11:49:57;;;;;;;39.05;7.85;;;;;;;;;;5052861;28;20025;-54
2023/07/12 11:52:25;;;;;;;45.22;7.45;;;;;;;;;;5022417;28;20116;-54
2023/07/12 11:54:53;;;;;;;32.05;7.63;;;;;;;;;;5037522;28;20491;-54
2023/07/12 11:57:19;;;;;;;40.63;8.60;;;;;;;;;;5033750;28;20423;-54
2023/07/12 11:59:47;;;;;;;41.40;8.95;;;;;;;;;;5054141;28;20033;-53
2023/07/12 12:02:16;;;;;;;31.25;8.38;;;;;;;;;;5047816;28;20053;-54
2023/07/12 12:04:41;;;;;;;36.70;7.45;;;;;;;;;;5047688;28;20465;-52
2023/07/12 12:07:18;;;;;;;41.40;8.05;;;;;;;;;;5044886;28;20033;-57
2023/07/12 12:09:44;;;;;;;36.75;8.80;;;;;;;;;;5034081;28;20063;-55
2023/07/12 12:12:16;;;;;;;36.88;7.97;;;;;;;;;;5029233;28;20140;-55
2023/07/12 12:14:42;;;;;;;34.00;7.88;;;;;;;;;;5033674;28;20475;-53
2023/07/12 12:17:24;;;;;;;43.88;8.40;;;;;;;;;;5046936;28;20068;-56
2023/07/12 12:20:00;;;;;;;35.47;8.30;;;;;;;;;;5044299;28;20455;-56
2023/07/12 12:22:25;;;;;;;30.98;8.30;;;;;;;;;;5038919;28;20038;-50
2023/07/12 12:24:55;;;;;;;30.60;7.75;;;;;;;;;;5046610;28;20116;-54
2023/07/12 12:27:26;;;;;;;30.55;7.40;;;;;;;;;;5058667;28;20044;-57
2023/07/12 12:29:52;;;;;;;26.60;7.50;;;;;;;;;;5057321;28;20017;-55
2023/07/12 12:32:21;;;;;;;26.17;7.40;;;;;;;;;;5042672;28;20039;-57
2023/07/12 12:34:54;;;;;;;36.05;8.10;;;;;;;;;;5051447;28;20028;-57
2023/07/12 12:37:24;;;;;;;25.52;7.07;;;;;;;;;;5037684;28;20171;-54
2023/07/12 12:40:01;;;;;;;24.65;7.50;;;;;;;;;;5021954;28;20041;-56
2023/07/12 12:42:28;;;;;;;24.30;7.05;;;;;;;;;;5055649;28;20052;-54
2023/07/12 12:44:55;;;;;;;22.98;7.38;;;;;;;;;;5044859;28;20027;-50
2023/07/12 12:47:32;;;;;;;27.70;7.25;;;;;;;;;;5054252;28;20167;-55
2023/07/12 12:49:58;;;;;;;38.00;7.13;;;;;;;;;;5054966;28;20025;-55
2023/07/12 12:52:28;;;;;;;26.48;7.50;;;;;;;;;;5037955;28;20029;-54
2023/07/12 12:55:04;;;;;;;32.55;7.20;;;;;;;;;;5050414;28;20031;-42
2023/07/12 12:57:30;;;;;;;34.13;8.43;;;;;;;;;;5040918;28;20498;-55
2023/07/12 12:59:56;;;;;;;28.63;7.40;;;;;;;;;;5017815;28;20080;-55
2023/07/12 13:02:22;;;;;;;25.77;7.28;;;;;;;;;;5041035;28;20025;-55
2023/07/12 13:04:48;;;;;;;30.92;7.15;;;;;;;;;;5040532;28;20028;-53
2023/07/12 13:07:26;;;;;;;23.50;6.57;;;;;;;;;;5054870;28;20041;-51
2023/07/12 13:09:52;;;;;;;30.50;7.72;;;;;;;;;;5046611;28;20060;-50
2023/07/12 13:12:23;;;;;;;19.40;6.85;;;;;;;;;;5048747;28;20045;-57
2023/07/12 13:14:49;;;;;;;28.90;7.47;;;;;;;;;;5052094;28;20024;-56
2023/07/12 13:17:21;;;;;;;27.17;6.88;;;;;;;;;;5028093;28;20040;-50
2023/07/12 13:19:47;;;;;;;;;;;;;;;;;;5054576;28;20727;-53
2023/07/12 13:22:18;;;;;;;24.60;6.03;;;;;;;;;;5034273;28;20090;-52
2023/07/12 13:24:44;;;;;;;24.80;6.63;;;;;;;;;;5039864;28;20037;-57
2023/07/12 13:27:34;;;;;;;15.43;5.93;;;;;;;;;;5022553;28;20045;-57
2023/07/12 13:30:00;;;;;;;20.52;6.30;;;;;;;;;;5046130;28;20402;-53
2023/07/12 13:32:26;;;;;;;25.00;6.75;;;;;;;;;;5048445;28;20498;-56
2023/07/12 13:34:53;;;;;;;25.83;7.00;;;;;;;;;;5050748;28;20088;-56
2023/07/12 13:37:27;;;;;;;15.50;5.95;;;;;;;;;;5050400;28;20041;-53
2023/07/12 13:39:53;;;;;;;27.58;6.45;;;;;;;;;;5051833;28;20119;-53
2023/07/12 13:42:19;;;;;;;20.02;6.22;;;;;;;;;;5056873;28;20123;-54
2023/07/12 13:44:44;;;;;;;20.30;5.72;;;;;;;;;;5061042;28;20067;-52
2023/07/12 13:47:13;;;;;;;10.85;5.07;;;;;;;;;;5037459;28;20036;-55
2023/07/12 13:49:39;;;;;;;25.83;6.53;;;;;;;;;;5048686;28;20021;-53
2023/07/12 13:52:04;;;;;;;20.42;5.90;;;;;;;;;;5038046;28;20049;-54
2023/07/12 13:54:30;;;;;;;12.95;6.05;;;;;;;;;;5054076;28;20068;-53
2023/07/12 13:56:58;;;;;;;22.75;5.95;;;;;;;;;;5033001;28;20038;-56
2023/07/12 13:59:23;;;;;;;19.98;5.90;;;;;;;;;;5040168;28;20022;-56
2023/07/12 14:01:49;;;;;;;23.27;6.55;;;;;;;;;;5035623;28;20129;-56
2023/07/12 14:04:16;;;;;;;28.27;5.80;;;;;;;;;;5027507;28;20037;-54
2023/07/12 14:06:41;;;;;;;21.20;6.20;;;;;;;;;;5042110;28;20037;-54
2023/07/12 14:09:09;;;;;;;19.50;5.90;;;;;;;;;;5041670;28;20079;-54
2023/07/12 14:11:34;;;;;;;16.60;5.85;;;;;;;;;;5053685;28;20041;-53
2023/07/12 14:14:00;;;;;;;23.65;5.78;;;;;;;;;;5051435;28;20141;-55
2023/07/12 14:16:26;;;;;;;21.52;5.97;;;;;;;;;;5051168;28;20057;-51
2023/07/12 14:18:52;;;;;;;18.40;6.15;;;;;;;;;;5017178;28;20013;-56
2023/07/12 14:21:21;;;;;;;24.50;6.20;;;;;;;;;;5033315;28;20037;-53
2023/07/12 14:23:48;;;;;;;22.02;6.50;;;;;;;;;;5033346;28;20040;-56
2023/07/12 14:26:17;;;;;;;26.27;6.10;;;;;;;;;;5036328;28;20067;-55
2023/07/12 14:28:47;;;;;;;19.15;6.10;;;;;;;;;;5020810;28;20064;-57
2023/07/12 14:31:15;;;;;;;15.82;6.53;;;;;;;;;;5048854;28;20033;-56
2023/07/12 14:33:40;;;;;;;16.88;5.57;;;;;;;;;;5033586;28;20028;-57
2023/07/12 14:36:06;;;;;;;27.50;6.32;;;;;;;;;;5036439;28;20065;-55
2023/07/12 14:38:31;;;;;;;16.42;5.75;;;;;;;;;;5053661;28;20064;-54
2023/07/12 14:40:58;;;;;;;15.65;5.90;;;;;;;;;;5034976;28;20172;-55
2023/07/12 14:43:23;;;;;;;24.52;6.78;;;;;;;;;;5019945;28;20364;-53